createdAt,value
2023-03-12T07:44:57.308Z,3.40
2023-03-12T07:47:24.686Z,2.57
2023-03-12T07:49:51.924Z,2.93
2023-03-12T07:52:20.281Z,2.77
2023-03-12T07:54:47.050Z,3.23
2023-03-12T07:57:13.730Z,2.70
2023-03-12T07:59:40.282Z,2.57
2023-03-12T08:02:07.064Z,2.37
2023-03-12T08:04:33.672Z,2.10
2023-03-12T08:07:00.248Z,2.20
2023-03-12T08:09:26.738Z,2.37
2023-03-12T08:11:53.406Z,2.90
2023-03-12T08:14:20.137Z,2.50
2023-03-12T08:16:46.773Z,2.33
2023-03-12T08:19:13.325Z,2.40
2023-03-12T08:21:39.851Z,2.83
2023-03-12T08:24:06.788Z,1.77
2023-03-12T08:26:33.250Z,1.47
2023-03-12T08:29:02.381Z,1.80
2023-03-12T08:31:29.342Z,1.67
2023-03-12T08:33:56.119Z,1.83
2023-03-12T08:36:22.786Z,2.00
2023-03-12T08:38:49.328Z,1.00
2023-03-12T08:41:19.228Z,1.23
2023-03-12T08:43:46.821Z,1.50
2023-03-12T08:46:13.879Z,1.37
2023-03-12T08:48:41.104Z,1.83
2023-03-12T08:51:07.845Z,1.43
2023-03-12T08:53:36.261Z,2.17
2023-03-12T08:56:03.699Z,1.27
2023-03-12T08:58:30.662Z,1.30
2023-03-12T09:00:57.692Z,1.20
2023-03-12T09:03:24.957Z,1.50
2023-03-12T09:05:51.716Z,1.30
2023-03-12T09:08:18.505Z,1.30
2023-03-12T09:10:50.117Z,1.30
2023-03-12T09:13:16.932Z,1.27
2023-03-12T09:15:44.029Z,1.13
2023-03-12T09:18:10.559Z,1.00
2023-03-12T09:20:37.106Z,1.40
2023-03-12T09:23:03.597Z,1.83
2023-03-12T09:25:30.116Z,1.53
2023-03-12T09:27:56.811Z,2.20
2023-03-12T09:30:26.445Z,1.97
2023-03-12T09:32:53.644Z,1.40
2023-03-12T09:35:20.350Z,1.80
2023-03-12T09:37:49.713Z,1.90
2023-03-12T09:40:23.336Z,1.80
2023-03-12T09:42:54.829Z,2.20
2023-03-12T09:45:30.807Z,1.60
2023-03-12T09:47:59.392Z,1.70
2023-03-12T09:50:30.227Z,1.27
2023-03-12T09:53:02.363Z,1.00
2023-03-12T09:55:37.367Z,1.73
2023-03-12T09:58:04.257Z,1.40
2023-03-12T10:00:34.725Z,1.50
2023-03-12T10:03:09.910Z,2.00
2023-03-12T10:05:37.266Z,1.70
2023-03-12T10:08:25.101Z,1.37
2023-03-12T10:11:16.240Z,1.10
2023-03-12T10:14:23.038Z,1.57
2023-03-12T10:17:31.759Z,1.67
2023-03-12T10:20:10.617Z,1.90
2023-03-12T10:22:46.196Z,1.43
2023-03-12T10:25:30.162Z,2.87
2023-03-12T10:28:07.500Z,2.50
2023-03-12T10:30:34.159Z,2.17
2023-03-12T10:33:04.391Z,1.87
2023-03-12T10:35:31.761Z,1.93
2023-03-12T10:38:01.017Z,1.57
2023-03-12T10:40:30.087Z,1.30
2023-03-12T10:42:56.917Z,1.30
2023-03-12T10:45:32.936Z,1.30
2023-03-12T10:48:02.676Z,1.40
2023-03-12T10:50:34.023Z,1.40
2023-03-12T10:53:23.661Z,1.30
2023-03-12T10:56:02.466Z,1.60
2023-03-12T10:58:49.983Z,1.53
2023-03-12T11:01:20.367Z,1.50
2023-03-12T11:03:47.070Z,1.20
2023-03-12T11:06:25.625Z,1.27
2023-03-12T11:09:17.594Z,1.60
2023-03-12T11:11:47.686Z,1.40
2023-03-12T11:14:19.154Z,2.30
2023-03-12T11:16:45.879Z,2.10
2023-03-12T11:19:14.812Z,1.97
2023-03-12T11:21:55.693Z,1.60
2023-03-12T11:24:22.267Z,1.60
2023-03-12T11:26:56.596Z,1.10
2023-03-12T11:29:25.529Z,1.57
2023-03-12T11:31:57.438Z,1.40
2023-03-12T11:34:29.629Z,1.40
2023-03-12T11:37:01.770Z,1.20
2023-03-12T11:39:40.062Z,1.03
2023-03-12T11:42:20.941Z,1.20
2023-03-12T11:45:20.978Z,1.67
2023-03-12T11:48:13.272Z,1.10
2023-03-12T11:50:47.596Z,1.63
2023-03-12T11:53:45.674Z,1.50
2023-03-12T11:56:16.696Z,1.00
2023-03-12T11:59:04.274Z,1.40
2023-03-12T12:01:55.579Z,1.00
2023-03-12T12:04:44.029Z,1.30
2023-03-12T12:07:24.036Z,1.07
2023-03-12T12:09:58.126Z,1.10
2023-03-12T12:13:22.669Z,1.67
2023-03-12T12:16:12.541Z,1.33
2023-03-12T12:18:43.208Z,1.23
2023-03-12T12:21:28.488Z,1.37
2023-03-12T12:24:16.363Z,1.20
2023-03-12T12:27:04.039Z,2.70
2023-03-12T12:30:08.398Z,2.00
2023-03-12T12:32:40.845Z,1.80
2023-03-12T12:35:19.534Z,1.73
2023-03-12T12:37:50.697Z,1.70
2023-03-12T12:40:31.099Z,1.40
2023-03-12T12:43:42.781Z,1.87
2023-03-12T12:46:14.727Z,1.70
2023-03-12T12:48:47.836Z,1.70
2023-03-12T12:51:20.372Z,2.03
2023-03-12T12:53:56.530Z,1.47
2023-03-12T12:56:29.449Z,2.00
2023-03-12T12:59:10.740Z,1.40
2023-03-12T13:01:38.222Z,1.73
2023-03-12T13:04:11.246Z,1.60
2023-03-12T13:07:17.085Z,1.80
2023-03-12T13:09:54.930Z,1.27
2023-03-12T13:12:30.691Z,1.73
2023-03-12T13:14:58.349Z,1.57
2023-03-12T13:17:32.681Z,1.10
2023-03-12T13:20:06.021Z,1.60
2023-03-12T13:22:38.154Z,1.60
2023-03-12T13:25:21.695Z,2.00
2023-03-12T13:27:58.088Z,2.10
2023-03-12T13:30:33.832Z,2.37
2023-03-12T13:33:01.805Z,1.70
2023-03-12T13:35:31.409Z,1.57
2023-03-12T13:38:37.596Z,2.40
2023-03-12T13:41:05.756Z,1.97
2023-03-12T13:43:42.473Z,1.97
2023-03-12T13:46:28.104Z,1.80
2023-03-12T13:48:58.034Z,2.23
2023-03-12T13:51:25.245Z,1.57
2023-03-12T13:53:58.894Z,1.90
2023-03-12T13:56:28.671Z,1.60
2023-03-12T13:59:06.447Z,1.83
2023-03-12T14:01:55.031Z,1.97
2023-03-12T14:04:24.734Z,1.67
2023-03-12T14:06:59.184Z,2.83
2023-03-12T14:09:39.944Z,2.13
2023-03-12T14:12:19.940Z,2.10
2023-03-12T14:15:16.757Z,1.50
2023-03-12T14:17:44.324Z,2.10
2023-03-12T14:20:16.598Z,2.20
2023-03-12T14:22:55.355Z,2.03
2023-03-12T14:25:37.883Z,2.10
2023-03-12T14:28:11.101Z,1.73
2023-03-12T14:30:58.180Z,1.97
2023-03-12T14:33:26.140Z,1.33
2023-03-12T14:36:05.102Z,2.23
2023-03-12T14:38:37.899Z,2.20
2023-03-12T14:41:15.717Z,2.77
2023-03-12T14:43:43.774Z,5.63
2023-03-12T14:46:16.671Z,2.87
2023-03-12T14:48:43.562Z,1.80
2023-03-12T14:51:30.632Z,2.00
2023-03-12T14:54:02.525Z,2.37
2023-03-12T14:56:33.260Z,1.80
2023-03-12T14:59:01.899Z,1.70
2023-03-12T15:01:30.874Z,2.10
2023-03-12T15:04:01.441Z,2.10
2023-03-12T15:06:31.408Z,2.60
2023-03-12T15:08:59.640Z,3.40
2023-03-12T15:11:28.045Z,3.90
2023-03-12T15:13:56.165Z,3.77
2023-03-12T15:16:23.128Z,2.63
2023-03-12T15:18:50.162Z,2.70
2023-03-12T15:21:17.204Z,3.30
2023-03-12T15:23:45.949Z,3.00
2023-03-12T15:26:16.378Z,3.90
2023-03-12T15:28:43.363Z,2.93
2023-03-12T15:31:17.088Z,2.47
2023-03-12T15:33:44.619Z,3.10
2023-03-12T15:36:19.745Z,3.37
2023-03-12T15:38:49.649Z,3.10
2023-03-12T15:41:26.757Z,4.90
2023-03-12T15:43:57.782Z,10.30
2023-03-12T15:46:25.307Z,5.40
2023-03-12T15:48:54.393Z,4.20
2023-03-12T15:51:30.791Z,3.10
2023-03-12T15:54:20.277Z,2.63
2023-03-12T15:56:47.023Z,3.67
2023-03-12T15:59:16.410Z,2.57
2023-03-12T16:01:50.452Z,3.07
2023-03-12T16:04:17.610Z,3.03
2023-03-12T16:06:46.974Z,5.20
2023-03-12T16:09:17.957Z,5.70
2023-03-12T16:11:44.597Z,6.93
2023-03-12T16:14:17.815Z,7.40
2023-03-12T16:16:44.577Z,8.93
2023-03-12T16:19:19.595Z,7.60
2023-03-12T16:21:46.496Z,6.87
2023-03-12T16:24:15.590Z,4.83
2023-03-12T16:27:05.261Z,6.97
2023-03-12T16:29:37.154Z,5.80
2023-03-12T16:32:11.442Z,5.37
2023-03-12T16:34:37.977Z,5.63
2023-03-12T16:37:04.495Z,4.47
2023-03-12T16:39:33.220Z,5.93
2023-03-12T16:42:03.179Z,4.30
2023-03-12T16:44:32.407Z,3.73
2023-03-12T16:47:00.296Z,4.67
2023-03-12T16:49:27.056Z,3.90
2023-03-12T16:51:54.465Z,3.80
2023-03-12T16:54:20.947Z,5.97
2023-03-12T16:56:48.546Z,4.67
2023-03-12T16:59:37.995Z,4.17
2023-03-12T17:02:18.781Z,4.00
2023-03-12T17:04:45.283Z,4.07
2023-03-12T17:07:11.797Z,5.50
2023-03-12T17:09:38.747Z,6.90
2023-03-12T17:12:18.709Z,6.37
2023-03-12T17:14:45.467Z,5.53
2023-03-12T17:17:12.019Z,5.73
2023-03-12T17:19:38.541Z,5.47
2023-03-12T17:22:05.128Z,5.23
2023-03-12T17:24:31.590Z,6.77
2023-03-12T17:26:58.559Z,7.20
2023-03-12T17:29:25.102Z,7.33
2023-03-12T17:31:52.069Z,7.07
2023-03-12T17:34:18.605Z,7.87
2023-03-12T17:36:45.110Z,8.63
2023-03-12T17:39:11.596Z,9.30
2023-03-12T17:41:38.258Z,8.17
2023-03-12T17:44:07.065Z,8.37
2023-03-12T17:46:33.650Z,6.80
2023-03-12T17:49:00.190Z,5.67
2023-03-12T17:51:26.681Z,6.40
2023-03-12T17:53:53.478Z,6.17
2023-03-12T17:56:20.026Z,5.83
2023-03-12T17:58:46.641Z,5.77
2023-03-12T18:01:13.806Z,5.47
2023-03-12T18:03:40.623Z,6.53
2023-03-12T18:06:07.229Z,5.93
2023-03-12T18:08:33.770Z,7.23
2023-03-12T18:11:01.780Z,7.00
2023-03-12T18:13:31.326Z,6.57
2023-03-12T18:15:58.367Z,6.20
2023-03-12T18:18:26.152Z,6.13
2023-03-12T18:20:53.136Z,6.27
2023-03-12T18:23:19.822Z,6.63
2023-03-12T18:25:46.431Z,6.30
2023-03-12T18:28:14.410Z,6.33
2023-03-12T18:30:41.340Z,5.73
2023-03-12T18:33:07.866Z,6.23
2023-03-12T18:35:35.073Z,6.40
2023-03-12T18:38:01.802Z,6.80
2023-03-12T18:40:29.541Z,6.87
2023-03-12T18:42:59.833Z,10.23
2023-03-12T18:45:27.464Z,8.63
2023-03-12T18:47:54.010Z,6.63
2023-03-12T18:50:21.577Z,6.93
2023-03-12T18:52:48.099Z,6.83
2023-03-12T18:55:18.375Z,6.80
2023-03-12T18:57:46.474Z,7.30
2023-03-12T19:00:17.589Z,7.87
2023-03-12T19:02:47.694Z,9.30
2023-03-12T19:05:15.184Z,10.20
2023-03-12T19:07:42.291Z,10.03
2023-03-12T19:10:09.574Z,10.50
2023-03-12T19:12:42.382Z,10.67
2023-03-12T19:15:16.378Z,11.43
2023-03-12T19:17:42.901Z,10.67
2023-03-12T19:20:10.413Z,10.37
2023-03-12T19:22:36.970Z,10.57
2023-03-12T19:25:03.731Z,9.90
2023-03-12T19:27:30.272Z,11.37
2023-03-12T19:29:56.769Z,10.27
2023-03-12T19:32:25.321Z,10.60
2023-03-12T19:34:54.180Z,11.80
2023-03-12T19:37:22.090Z,11.30
2023-03-12T19:39:48.677Z,11.57
2023-03-12T19:42:16.065Z,11.13
2023-03-12T19:44:42.532Z,10.13
2023-03-12T19:47:09.387Z,10.17
2023-03-12T19:49:36.422Z,9.23
2023-03-12T19:52:04.357Z,8.63
2023-03-12T19:54:30.874Z,8.03
2023-03-12T19:56:57.389Z,8.63
2023-03-12T19:59:23.939Z,8.87
2023-03-12T20:01:50.544Z,9.63
2023-03-12T20:04:17.134Z,8.87
2023-03-12T20:06:43.613Z,9.90
2023-03-12T20:09:10.517Z,9.97
2023-03-12T20:11:37.132Z,10.47
2023-03-12T20:14:06.492Z,9.77
2023-03-12T20:16:33.054Z,10.93
2023-03-12T20:18:59.617Z,11.70
2023-03-12T20:21:26.292Z,10.30
2023-03-12T20:23:57.292Z,11.23
2023-03-12T20:26:23.877Z,11.37
2023-03-12T20:28:50.317Z,10.83
2023-03-12T20:31:17.816Z,11.20
2023-03-12T20:33:44.423Z,11.57
2023-03-12T20:36:12.962Z,11.87
2023-03-12T20:38:40.012Z,10.57
2023-03-12T20:41:13.977Z,10.57
2023-03-12T20:43:44.742Z,11.43
2023-03-12T20:46:12.482Z,10.20
2023-03-12T20:48:38.984Z,11.87
2023-03-12T20:51:05.779Z,10.80
2023-03-12T20:53:32.269Z,10.77
2023-03-12T20:55:58.774Z,10.20
2023-03-12T20:58:25.306Z,11.03
2023-03-12T21:00:51.782Z,9.87
2023-03-12T21:03:19.247Z,9.67
2023-03-12T21:05:56.629Z,8.97
2023-03-12T21:08:24.343Z,9.17
2023-03-12T21:10:51.131Z,9.77
2023-03-12T21:13:19.193Z,9.87
2023-03-12T21:15:45.869Z,9.97
2023-03-12T21:18:12.592Z,10.93
2023-03-12T21:20:40.382Z,10.83
2023-03-12T21:23:08.060Z,9.67
2023-03-12T21:25:39.040Z,9.67
2023-03-12T21:28:06.873Z,9.03
2023-03-12T21:30:33.849Z,8.00
2023-03-12T21:33:03.314Z,10.57
2023-03-12T21:35:29.913Z,9.03
2023-03-12T21:37:56.828Z,9.57
2023-03-12T21:40:24.103Z,9.17
2023-03-12T21:42:50.665Z,9.60
2023-03-12T21:45:17.246Z,10.77
2023-03-12T21:47:43.993Z,9.80
2023-03-12T21:50:11.085Z,10.50
2023-03-12T21:52:42.990Z,10.70
2023-03-12T21:55:10.604Z,10.27
2023-03-12T21:57:37.171Z,10.40
2023-03-12T22:00:04.902Z,10.20
2023-03-12T22:02:31.731Z,10.03
2023-03-12T22:05:00.898Z,9.03
2023-03-12T22:07:30.087Z,10.33
2023-03-12T22:09:56.666Z,10.47
2023-03-12T22:12:23.278Z,10.13
2023-03-12T22:14:49.776Z,10.10
2023-03-12T22:17:17.176Z,10.43
2023-03-12T22:19:44.094Z,9.87
2023-03-12T22:22:10.656Z,9.60
2023-03-12T22:24:37.477Z,9.60
2023-03-12T22:27:06.529Z,9.73
2023-03-12T22:29:34.073Z,10.47
2023-03-12T22:32:00.520Z,10.37
2023-03-12T22:34:27.062Z,9.93
2023-03-12T22:36:53.635Z,11.00
2023-03-12T22:39:20.203Z,10.90
2023-03-12T22:41:50.653Z,10.27
2023-03-12T22:44:17.334Z,10.30
2023-03-12T22:46:43.997Z,10.33
2023-03-12T22:49:10.558Z,9.43
2023-03-12T22:51:37.322Z,9.40
2023-03-12T22:54:04.442Z,10.47
2023-03-12T22:56:30.960Z,9.53
2023-03-12T22:58:57.474Z,9.97
2023-03-12T23:01:24.291Z,9.80
2023-03-12T23:03:51.145Z,9.90
2023-03-12T23:06:23.544Z,9.93
2023-03-12T23:08:51.191Z,9.40
2023-03-12T23:11:20.772Z,8.93
2023-03-12T23:13:48.316Z,10.00
2023-03-12T23:16:23.752Z,9.37
2023-03-12T23:18:50.756Z,9.07
2023-03-12T23:21:19.656Z,9.03
2023-03-12T23:23:47.251Z,9.73
2023-03-12T23:26:19.696Z,9.10
2023-03-12T23:28:47.392Z,10.00
2023-03-12T23:31:16.228Z,9.83
2023-03-12T23:33:42.924Z,9.47
2023-03-12T23:36:15.048Z,9.77
2023-03-12T23:38:42.463Z,9.07
2023-03-12T23:41:16.115Z,8.57
2023-03-12T23:43:43.082Z,8.90
2023-03-12T23:46:10.686Z,9.00
2023-03-12T23:48:37.910Z,8.27
2023-03-12T23:51:12.834Z,9.30
2023-03-12T23:53:40.616Z,8.37
2023-03-12T23:56:10.258Z,9.00
2023-03-12T23:58:36.881Z,8.53
